Time;durP1;ratioP1;P1;durP2;ratioP2;P2;SDS_P1;SDS_P2;PMS_P1;PMS_P2;Temp;Humidity;BMP_temperature;BMP_pressure;BME280_temperature;BME280_humidity;BME280_pressure;Samples;Min_cycle;Max_cycle;Signal;HPM_P1;HPM_P2
2022/09/03 00:00:05;;;;;;;2.08;1.27;;;16.20;99.90;;;-141.84;49.88;20740.69;5051447;28;20304;-62
2022/09/03 00:02:44;;;;;;;1.85;1.40;;;16.10;99.90;;;-141.84;50.50;20718.34;5050876;28;20623;-63
2022/09/03 00:05:20;;;;;;;3.38;1.73;;;16.00;99.90;;;-141.84;50.00;20773.22;5051570;28;20233;-62
2022/09/03 00:08:01;;;;;;;1.60;1.50;;;16.00;99.90;;;-141.84;49.86;20738.66;5051387;28;20229;-64
2022/09/03 00:10:43;;;;;;;3.15;1.17;;;16.10;99.90;;;-141.84;50.43;20702.09;5051752;28;20736;-65
2022/09/03 00:13:18;;;;;;;1.60;1.50;;;16.00;99.90;;;-141.84;50.95;20740.69;5051344;28;20217;-63
2022/09/03 00:15:46;;;;;;;3.10;1.50;;;15.90;99.90;;;-141.84;50.79;20698.00;5051181;28;20195;-62
2022/09/03 00:18:20;;;;;;;1.75;1.35;;;15.80;99.90;;;-141.84;51.18;20673.63;5051924;28;20223;-63
2022/09/03 00:20:56;;;;;;;2.45;1.50;;;15.80;99.90;;;-141.84;51.61;20673.63;5051397;28;20224;-64
2022/09/03 00:23:28;;;;;;;1.50;1.40;;;15.70;99.90;;;-141.84;51.39;20639.06;5050889;28;20263;-63
2022/09/03 00:26:16;;;;;;;1.75;1.40;;;15.70;99.90;;;-141.84;51.46;20685.81;5051153;28;20263;-62
2022/09/03 00:28:54;;;;;;;2.88;1.40;;;15.70;99.90;;;-141.84;51.46;20683.78;5051221;28;20256;-63
2022/09/03 00:31:31;;;;;;;1.77;1.67;;;15.60;99.90;;;-141.84;51.86;20637.03;5051134;28;20735;-63
2022/09/03 00:34:08;;;;;;;2.70;1.40;;;15.60;99.90;;;-141.84;51.68;20671.59;5051275;28;20228;-63
2022/09/03 00:36:41;;;;;;;3.30;1.42;;;15.60;99.90;;;-141.84;52.03;20643.13;5051284;28;20554;-63
2022/09/03 00:39:12;;;;;;;2.60;1.40;;;15.50;99.90;;;-141.84;51.68;20687.84;5052103;28;20203;-63
2022/09/03 00:42:05;;;;;;;1.60;1.50;;;15.50;99.90;;;-141.84;51.29;20630.94;5051277;28;20653;-64
2022/09/03 00:44:59;;;;;;;2.10;1.45;;;15.60;99.90;;;-141.84;51.91;20643.13;5047457;28;20397;-63
2022/09/03 00:47:40;;;;;;;3.90;1.55;;;15.50;99.90;;;-141.84;51.48;20675.66;5050771;28;20231;-63
2022/09/03 00:50:23;;;;;;;2.33;1.60;;;15.60;99.90;;;-141.84;51.92;20663.47;5050880;28;20275;-62
2022/09/03 00:53:04;;;;;;;3.58;1.50;;;15.50;99.90;;;-141.84;51.64;20657.34;5050899;28;20607;-64
2022/09/03 00:55:48;;;;;;;1.50;1.40;;;15.50;99.90;;;-141.84;51.57;20712.25;5050864;28;20274;-62
2022/09/03 00:58:51;;;;;;;1.85;1.40;;;15.60;99.90;;;-141.84;51.76;20700.03;5050506;28;20604;-63
2022/09/03 01:01:28;;;;;;;1.88;1.30;;;15.60;99.90;;;-141.84;51.97;20628.91;5050783;28;20328;-63
2022/09/03 01:04:16;;;;;;;2.03;1.40;;;15.50;99.90;;;-141.84;51.28;20681.75;5050647;28;20708;-62
2022/09/03 01:06:59;;;;;;;2.22;1.30;;;15.70;99.90;;;-141.84;52.13;20639.06;5050869;28;20321;-62
2022/09/03 01:09:44;;;;;;;3.63;1.65;;;15.50;99.90;;;-141.84;52.20;20663.47;5051150;28;20207;-63
2022/09/03 01:12:29;;;;;;;3.63;1.52;;;15.50;99.90;;;-141.84;51.79;20665.50;5050914;28;20202;-62
2022/09/03 01:15:12;;;;;;;2.55;1.60;;;15.50;99.90;;;-141.84;51.90;20659.38;5050658;28;20217;-63
2022/09/03 01:18:02;;;;;;;1.63;1.30;;;15.50;99.90;;;-141.84;51.49;20691.91;5050616;28;20229;-64
2022/09/03 01:20:50;;;;;;;2.22;1.52;;;15.50;99.90;;;-141.84;51.90;20659.38;5050847;28;20231;-62
2022/09/03 01:23:53;;;;;;;1.67;1.58;;;15.50;99.90;;;-141.84;52.33;20618.72;5050327;28;20731;-63
2022/09/03 01:27:02;;;;;;;3.13;1.55;;;15.50;99.90;;;-141.84;52.29;20675.66;5050951;28;20307;-65
2022/09/03 01:29:44;;;;;;;2.33;1.30;;;15.50;99.90;;;-141.84;52.42;20653.28;5050483;28;20326;-63
2022/09/03 01:32:23;;;;;;;2.10;1.50;;;15.40;99.90;;;-141.84;53.15;20598.41;5050488;28;20714;-63
2022/09/03 01:35:03;;;;;;;2.23;1.53;;;15.40;99.90;;;-141.84;52.40;20647.19;5050909;28;20235;-62
2022/09/03 01:37:46;;;;;;;1.65;1.55;;;15.40;99.90;;;-141.84;52.04;20685.81;5050654;28;20316;-63
2022/09/03 01:40:27;;;;;;;1.90;1.52;;;15.40;99.90;;;-141.84;52.67;20612.63;5050733;28;20300;-63
2022/09/03 01:43:17;;;;;;;2.10;1.40;;;15.40;99.90;;;-141.84;52.90;20606.53;5050507;28;20259;-63
2022/09/03 01:45:58;;;;;;;2.20;1.30;;;15.40;99.90;;;-141.84;52.75;20602.47;5050314;28;20194;-63
2022/09/03 01:48:41;;;;;;;2.10;1.42;;;15.40;99.90;;;-141.84;52.97;20604.50;5050744;28;20296;-63
2022/09/03 01:51:19;;;;;;;2.25;1.48;;;15.30;99.90;;;-141.84;53.10;20565.88;5050690;28;20304;-62
2022/09/03 01:54:27;;;;;;;1.73;1.42;;;15.20;99.90;;;-141.84;52.83;20598.41;5050086;28;20221;-63
2022/09/03 01:57:35;;;;;;;4.45;1.50;;;15.30;99.90;;;-141.84;52.73;20590.28;5052934;28;20239;-64
2022/09/03 02:00:12;;;;;;;2.20;1.30;;;15.30;99.90;;;-141.84;53.38;20596.38;5053691;28;20259;-62
2022/09/03 02:02:46;;;;;;;3.65;1.70;;;15.20;99.90;;;-141.84;52.85;20600.44;5053852;28;20606;-63
2022/09/03 02:05:19;;;;;;;1.55;1.40;;;15.30;99.90;;;-141.84;53.06;20578.09;5053729;28;20229;-64
2022/09/03 02:07:51;;;;;;;1.35;1.25;;;15.20;99.90;;;-141.84;53.25;20578.09;5053662;28;20221;-63
2022/09/03 02:10:26;;;;;;;4.53;1.70;;;15.20;99.90;;;-141.84;53.42;20645.16;5053604;28;20316;-63
2022/09/03 02:13:01;;;;;;;3.88;1.70;;;15.20;99.90;;;-141.84;53.87;20574.00;5053236;28;20660;-62
2022/09/03 02:15:33;;;;;;;12.77;1.77;;;15.10;99.90;;;-141.84;53.82;20553.69;5053828;28;20181;-64
2022/09/03 02:18:08;;;;;;;3.30;1.70;;;15.10;99.90;;;-141.84;53.91;20574.00;5053659;28;20209;-63
2022/09/03 02:20:38;;;;;;;2.30;1.50;;;15.00;99.90;;;-141.84;54.18;20555.72;5053461;28;20247;-63
2022/09/03 02:23:06;;;;;;;2.28;1.70;;;15.00;99.90;;;-141.84;54.00;20582.16;5053451;28;20225;-63
2022/09/03 02:25:41;;;;;;;3.17;1.53;;;15.00;99.90;;;-141.84;53.44;20574.00;5053320;28;20252;-63
2022/09/03 02:28:10;;;;;;;3.37;1.60;;;15.00;99.90;;;-141.84;53.72;20592.31;5052936;28;20312;-63
2022/09/03 02:30:45;;;;;;;2.30;1.50;;;15.00;99.90;;;-141.84;54.17;20559.78;5053191;28;20181;-63
2022/09/03 02:33:15;;;;;;;2.80;1.52;;;15.00;99.90;;;-141.84;54.43;20533.34;5053897;28;20205;-63
2022/09/03 02:35:45;;;;;;;4.13;1.48;;;14.90;99.90;;;-141.84;54.13;20559.78;5053224;28;20308;-63
2022/09/03 02:38:16;;;;;;;3.47;1.77;;;15.00;99.90;;;-141.84;53.86;20600.44;5053036;28;20248;-63
2022/09/03 02:40:45;;;;;;;2.63;1.67;;;14.90;99.90;;;-141.84;54.23;20529.28;5053062;28;20336;-63
2022/09/03 02:43:20;;;;;;;1.70;1.60;;;14.90;99.90;;;-141.84;54.95;20508.97;5052700;28;20227;-62
2022/09/03 02:46:01;;;;;;;2.43;1.67;;;14.80;99.90;;;-141.84;55.00;20464.25;5052961;28;20307;-63
2022/09/03 02:48:30;;;;;;;2.50;1.90;;;14.70;99.90;;;-141.84;55.00;20513.03;5053658;28;20205;-63
2022/09/03 02:50:59;;;;;;;2.07;1.80;;;14.60;99.90;;;-141.84;55.14;20506.94;5052798;28;20221;-64
2022/09/03 02:53:28;;;;;;;2.20;1.80;;;14.60;99.90;;;-141.84;55.36;20517.09;5052649;28;20229;-63
2022/09/03 02:55:59;;;;;;;2.80;1.70;;;14.60;99.90;;;-141.84;55.83;20468.31;5052782;28;20312;-63
2022/09/03 02:58:30;;;;;;;4.53;1.95;;;14.50;99.90;;;-141.84;56.33;20429.69;5052320;28;20255;-64
2022/09/03 03:00:59;;;;;;;2.42;1.88;;;14.40;99.90;;;-141.84;56.60;20462.22;5052443;28;20256;-63
2022/09/03 03:03:27;;;;;;;2.57;1.60;;;14.40;99.90;;;-141.84;56.42;20452.06;5053057;28;20295;-65
2022/09/03 03:06:02;;;;;;;2.53;1.90;;;14.30;99.90;;;-141.84;56.82;20417.50;5052163;28;20582;-63
2022/09/03 03:08:32;;;;;;;2.80;1.80;;;14.30;99.90;;;-141.84;57.37;20435.78;5052416;28;20227;-64
2022/09/03 03:11:01;;;;;;;2.13;1.73;;;14.20;99.90;;;-141.84;56.98;20445.94;5052524;28;20229;-63
2022/09/03 03:13:31;;;;;;;2.30;1.77;;;14.20;99.90;;;-141.84;56.91;20429.69;5052133;28;20235;-64
2022/09/03 03:16:02;;;;;;;1.97;1.80;;;14.10;99.90;;;-141.84;57.13;20407.34;5052205;28;20308;-62
2022/09/03 03:18:30;;;;;;;2.63;1.90;;;14.10;99.90;;;-141.84;57.52;20399.19;5052929;28;20192;-63
2022/09/03 03:21:05;;;;;;;3.83;1.80;;;14.10;99.90;;;-141.84;57.02;20456.13;5052619;28;20213;-62
2022/09/03 03:23:34;;;;;;;2.10;1.70;;;14.10;99.90;;;-141.84;56.93;20415.47;5051924;28;20231;-63
2022/09/03 03:26:02;;;;;;;2.07;1.87;;;14.20;99.90;;;-141.84;56.92;20427.66;5052089;28;20309;-63
2022/09/03 03:28:33;;;;;;;1.80;1.70;;;14.20;99.90;;;-141.84;56.84;20425.63;5051710;28;20313;-62
2022/09/03 03:31:07;;;;;;;2.50;1.67;;;14.20;99.90;;;-141.84;56.96;20415.47;5051967;28;20428;-64
2022/09/03 03:33:35;;;;;;;2.10;1.90;;;14.10;99.90;;;-141.84;57.17;20425.63;5052036;28;20227;-63
2022/09/03 03:36:07;;;;;;;2.33;1.80;;;14.20;99.90;;;-141.84;56.96;20456.13;5052785;28;20207;-63
2022/09/03 03:38:36;;;;;;;2.53;1.83;;;14.20;99.90;;;-141.84;56.90;20417.50;5051615;28;20323;-62
2022/09/03 03:41:09;;;;;;;2.20;2.00;;;14.20;99.90;;;-141.84;56.99;20447.97;5052015;28;20300;-64
2022/09/03 03:43:37;;;;;;;3.10;1.70;;;14.10;99.90;;;-141.84;56.54;20427.66;5051239;28;20231;-64
2022/09/03 03:46:06;;;;;;;2.10;1.90;;;14.20;99.90;;;-141.84;56.84;20435.78;5051450;28;20236;-63
2022/09/03 03:48:35;;;;;;;7.33;2.63;;;14.20;99.90;;;-141.84;56.63;20454.09;5052129;28;20692;-62
2022/09/03 03:51:07;;;;;;;2.83;1.85;;;14.20;99.90;;;-141.84;57.29;20407.34;5052417;28;20236;-63
2022/09/03 03:53:38;;;;;;;4.50;1.90;;;14.20;99.90;;;-141.84;56.68;20462.22;5051329;28;20316;-62
2022/09/03 03:56:10;;;;;;;3.60;1.97;;;14.30;99.90;;;-141.84;56.56;20445.94;5050168;28;20237;-64
2022/09/03 03:58:41;;;;;;;2.20;1.70;;;14.30;99.90;;;-141.84;56.32;20431.72;5051144;28;20244;-63
2022/09/03 04:01:11;;;;;;;2.03;1.80;;;14.30;99.90;;;-141.84;56.49;20450.03;5051493;28;20241;-63
2022/09/03 04:03:40;;;;;;;4.47;1.88;;;14.30;99.90;;;-141.84;55.76;20456.13;5051460;28;20263;-62
2022/09/03 04:06:12;;;;;;;2.73;2.03;;;14.30;99.90;;;-141.84;56.20;20480.50;5051958;28;20198;-62
2022/09/03 04:08:44;;;;;;;2.27;2.07;;;14.40;99.90;;;-141.84;56.20;20458.16;5051468;28;20718;-62
2022/09/03 04:11:17;;;;;;;2.30;2.10;;;14.30;99.90;;;-141.84;56.51;20447.97;5051358;28;20225;-62
2022/09/03 04:13:47;;;;;;;3.23;2.10;;;14.30;99.90;;;-141.84;56.06;20460.19;5051287;28;20229;-62
2022/09/03 04:16:18;;;;;;;4.47;2.20;;;14.30;99.90;;;-141.84;55.94;20439.84;5048113;28;20333;-63
2022/09/03 04:18:48;;;;;;;3.20;1.90;;;14.30;99.90;;;-141.84;56.65;20447.97;5050358;28;20206;-62
2022/09/03 04:21:20;;;;;;;2.17;1.97;;;14.20;99.90;;;-141.84;56.79;20374.81;5052025;28;20645;-62
2022/09/03 04:23:51;;;;;;;2.47;2.20;;;14.20;99.90;;;-141.84;56.92;20421.56;5050991;28;20235;-63
2022/09/03 04:26:22;;;;;;;2.70;2.10;;;14.10;99.90;;;-141.84;57.16;20411.41;5050985;28;20424;-63
2022/09/03 04:28:51;;;;;;;3.67;2.20;;;14.10;99.90;;;-141.84;57.14;20423.59;5050049;28;20231;-62
2022/09/03 04:31:21;;;;;;;2.87;2.03;;;14.00;99.90;;;-141.84;57.59;20403.25;5047991;28;20296;-63
2022/09/03 04:33:50;;;;;;;2.40;2.20;;;14.00;99.90;;;-141.84;57.33;20407.34;5051007;28;20626;-63
2022/09/03 04:36:22;;;;;;;2.20;2.00;;;14.00;99.90;;;-141.84;58.13;20389.03;5051479;28;20226;-62
2022/09/03 04:38:52;;;;;;;3.60;2.07;;;13.80;99.90;;;-141.84;58.63;20346.34;5037437;28;20779;-63
2022/09/03 04:41:24;;;;;;;2.43;2.23;;;13.80;99.90;;;-141.84;58.58;20334.16;5031018;28;20301;-62
2022/09/03 04:43:54;;;;;;;3.23;2.10;;;13.70;99.90;;;-141.84;58.25;20382.94;5030571;28;20312;-62
2022/09/03 04:46:27;;;;;;;2.60;2.00;;;13.80;99.90;;;-141.84;58.29;20368.72;5031105;28;20238;-62
2022/09/03 04:48:56;;;;;;;2.17;1.93;;;13.80;99.90;;;-141.84;58.08;20399.19;5031022;28;20229;-61
2022/09/03 04:51:28;;;;;;;3.23;1.93;;;13.80;99.90;;;-141.84;57.79;20382.94;5031458;28;20248;-62
2022/09/03 04:54:00;;;;;;;4.27;2.10;;;13.90;99.90;;;-141.84;56.86;20419.53;5031339;28;20206;-63
2022/09/03 04:56:30;;;;;;;2.20;2.00;;;14.00;99.90;;;-141.84;57.01;20413.44;5030761;28;20238;-63
2022/09/03 04:59:02;;;;;;;2.20;2.00;;;14.10;99.90;;;-141.84;57.34;20419.53;5030518;28;20309;-63
2022/09/03 05:01:33;;;;;;;2.13;1.90;;;14.10;99.90;;;-141.84;57.24;20425.63;5030635;28;20230;-62
2022/09/03 05:04:03;;;;;;;3.00;1.93;;;14.10;99.90;;;-141.84;57.60;20395.13;5031069;28;20229;-63
2022/09/03 05:06:35;;;;;;;2.23;1.90;;;14.10;99.90;;;-141.84;56.77;20452.06;5030996;28;20190;-64
2022/09/03 05:09:05;;;;;;;3.00;2.00;;;14.20;99.90;;;-141.84;57.03;20419.53;5031144;28;20256;-60
2022/09/03 05:11:33;;;;;;;2.20;2.00;;;14.20;99.90;;;-141.84;56.50;20441.88;5030667;28;20290;-59
2022/09/03 05:14:02;;;;;;;2.10;1.90;;;14.30;99.90;;;-141.84;55.83;20454.09;5030362;28;20308;-59
2022/09/03 05:16:30;;;;;;;2.57;2.17;;;14.40;99.90;;;-141.84;55.99;20439.84;5030542;28;20316;-59
2022/09/03 05:19:02;;;;;;;3.13;2.03;;;14.40;99.90;;;-141.84;55.61;20508.97;5030491;28;20218;-59
2022/09/03 05:21:32;;;;;;;2.90;2.00;;;14.50;99.90;;;-141.84;55.09;20498.81;5030894;28;20277;-62
2022/09/03 05:24:01;;;;;;;3.30;2.20;;;14.70;99.90;;;-141.84;54.82;20555.72;5030712;28;20226;-60
2022/09/03 05:26:33;;;;;;;2.13;1.93;;;14.70;99.90;;;-141.84;54.53;20486.59;5030303;28;20318;-60
2022/09/03 05:29:06;;;;;;;4.93;2.10;;;14.70;99.90;;;-141.84;54.84;20531.31;5030185;28;20312;-60
2022/09/03 05:31:37;;;;;;;1.90;1.80;;;14.80;99.90;;;-141.84;54.03;20565.88;5034243;28;20250;-59
2022/09/03 05:34:07;;;;;;;4.37;2.00;;;14.90;99.90;;;-141.84;53.37;20604.50;5034592;28;20222;-59
2022/09/03 05:36:38;;;;;;;2.00;1.77;;;15.10;99.90;;;-141.84;53.43;20616.69;5034707;28;20293;-60
2022/09/03 05:39:06;;;;;;;3.97;2.00;;;15.30;99.90;;;-141.84;53.49;20580.13;5035345;28;20198;-59
2022/09/03 05:41:35;;;;;;;2.13;1.90;;;15.30;99.90;;;-141.84;53.42;20574.00;5034052;28;20309;-59
2022/09/03 05:44:04;;;;;;;2.40;2.10;;;15.30;99.90;;;-141.84;53.91;20565.88;5033836;28;20226;-60
2022/09/03 05:46:36;;;;;;;4.60;2.10;;;15.20;99.90;;;-141.84;53.79;20584.19;5034138;28;20229;-59
2022/09/03 05:49:07;;;;;;;3.42;1.90;;;15.20;99.90;;;-141.84;53.70;20594.34;5034298;28;20244;-59
2022/09/03 05:51:38;;;;;;;2.17;1.77;;;15.30;99.90;;;-141.84;53.52;20574.00;5033956;28;20204;-59
2022/09/03 05:54:07;;;;;;;3.25;1.85;;;15.40;99.90;;;-141.84;53.00;20635.00;5034300;28;20186;-60
2022/09/03 05:56:39;;;;;;;3.67;2.13;;;15.50;99.90;;;-141.84;52.54;20641.09;5033778;28;20332;-59
2022/09/03 05:59:10;;;;;;;2.30;2.10;;;15.50;99.90;;;-141.84;52.51;20651.25;5033473;28;20253;-59
2022/09/03 06:01:41;;;;;;;3.17;2.00;;;15.60;99.90;;;-141.84;52.16;20679.72;5033657;28;20264;-60
2022/09/03 06:04:19;;;;;;;2.67;2.05;;;15.60;99.90;;;-141.84;52.13;20693.94;5033736;28;20320;-59
2022/09/03 06:06:49;;;;;;;2.10;1.92;;;15.70;99.90;;;-141.84;52.05;20671.59;5034298;28;20202;-60
2022/09/03 06:09:19;;;;;;;2.33;2.13;;;15.80;99.90;;;-141.84;51.84;20665.50;5033580;28;20233;-59
2022/09/03 06:11:50;;;;;;;3.35;2.08;;;15.80;99.90;;;-141.84;51.83;20689.88;5033578;28;20232;-58
2022/09/03 06:14:20;;;;;;;3.33;1.95;;;15.90;99.90;;;-141.84;51.72;20700.03;5033037;28;20729;-60
2022/09/03 06:16:51;;;;;;;3.25;1.85;;;16.00;99.90;;;-141.84;51.68;20700.03;5033482;28;20222;-61
2022/09/03 06:19:20;;;;;;;3.78;2.10;;;16.00;99.90;;;-141.84;51.72;20687.84;5033507;28;20305;-59
2022/09/03 06:21:50;;;;;;;4.28;2.13;;;16.10;99.90;;;-141.84;51.54;20691.91;5033482;28;20218;-60
2022/09/03 06:24:22;;;;;;;3.15;2.03;;;16.10;99.90;;;-141.84;52.06;20724.44;5033570;28;20631;-61
2022/09/03 06:26:53;;;;;;;3.40;2.28;;;16.10;99.90;;;-141.84;52.22;20681.75;5032920;28;20226;-60
2022/09/03 06:29:21;;;;;;;2.08;1.88;;;16.10;99.90;;;-141.84;51.92;20681.75;5032642;28;20721;-60
2022/09/03 06:31:50;;;;;;;2.28;2.00;;;16.10;99.90;;;-141.84;51.72;20704.13;5033015;28;20305;-60
2022/09/03 06:34:18;;;;;;;4.80;1.90;;;16.10;99.90;;;-141.84;51.99;20691.91;5033201;28;20280;-61
2022/09/03 06:36:46;;;;;;;2.80;1.92;;;16.10;99.90;;;-141.84;52.05;20685.81;5033239;28;20198;-59
2022/09/03 06:39:15;;;;;;;4.68;2.00;;;16.00;99.90;;;-141.84;51.99;20738.66;5033335;28;20665;-61
2022/09/03 06:41:44;;;;;;;5.05;2.05;;;16.00;99.90;;;-141.84;52.04;20734.59;5032327;28;20230;-60
2022/09/03 06:44:13;;;;;;;2.07;1.80;;;16.00;99.90;;;-141.84;52.38;20671.59;5032726;28;20248;-60
2022/09/03 06:46:42;;;;;;;2.65;2.03;;;16.00;99.90;;;-141.84;52.40;20687.84;5033192;28;20253;-60
2022/09/03 06:49:11;;;;;;;2.90;1.90;;;15.90;99.90;;;-141.84;51.87;20765.09;5031789;28;20240;-60
2022/09/03 06:51:42;;;;;;;2.78;1.92;;;16.00;99.90;;;-141.84;52.40;20695.97;5033420;28;20252;-59
2022/09/03 06:54:12;;;;;;;4.10;2.20;;;16.00;99.90;;;-141.84;52.69;20679.72;5033685;28;20189;-60
2022/09/03 06:56:41;;;;;;;2.17;1.95;;;16.00;99.90;;;-141.84;52.16;20693.94;5033024;28;20709;-59
2022/09/03 06:59:13;;;;;;;2.80;2.00;;;16.00;99.90;;;-141.84;51.61;20730.53;5031937;28;20225;-60
2022/09/03 07:01:44;;;;;;;2.40;1.90;;;16.10;99.90;;;-141.84;51.74;20695.97;5032683;28;20288;-59
2022/09/03 07:04:16;;;;;;;2.75;2.30;;;16.10;99.90;;;-141.84;52.26;20693.94;5032389;28;20774;-59
2022/09/03 07:06:47;;;;;;;2.00;1.80;;;16.10;99.90;;;-141.84;52.37;20681.75;5032470;28;20290;-59
2022/09/03 07:09:17;;;;;;;3.13;2.08;;;16.10;99.90;;;-141.84;51.85;20734.59;5032653;28;20585;-60
2022/09/03 07:11:48;;;;;;;2.22;1.70;;;16.20;99.90;;;-141.84;52.16;20712.25;5032011;28;20225;-59
2022/09/03 07:14:18;;;;;;;2.47;2.00;;;16.30;99.90;;;-141.84;51.52;20775.25;5032255;28;20345;-60
2022/09/03 07:16:48;;;;;;;2.13;1.92;;;16.40;99.90;;;-141.84;50.38;20826.09;5032376;28;20313;-60
2022/09/03 07:19:17;;;;;;;3.60;2.08;;;16.50;99.90;;;-141.84;50.67;20783.41;5032400;28;20222;-60
2022/09/03 07:21:45;;;;;;;2.10;1.88;;;16.60;99.90;;;-141.84;50.38;20868.78;5047984;28;20280;-59
2022/09/03 07:24:20;;;;;;;1.70;1.60;;;16.70;99.90;;;-141.84;50.42;20811.84;5052496;28;20669;-59
2022/09/03 07:26:50;;;;;;;2.25;2.03;;;16.90;99.90;;;-141.84;50.07;20811.84;5052218;28;20256;-60
2022/09/03 07:29:22;;;;;;;1.85;1.75;;;16.90;99.90;;;-141.84;49.41;20885.03;5051562;28;20225;-60
2022/09/03 07:31:51;;;;;;;3.28;1.98;;;17.10;99.90;;;-141.84;49.22;20923.66;5051936;28;20235;-60
2022/09/03 07:34:25;;;;;;;2.08;1.88;;;17.10;99.90;;;-141.84;48.92;20874.88;5051897;28;20785;-60
2022/09/03 07:36:54;;;;;;;3.40;1.90;;;17.20;99.90;;;-141.84;48.88;20883.00;5052106;28;20226;-60
2022/09/03 07:39:22;;;;;;;3.17;1.80;;;17.20;99.90;;;-141.84;48.95;20874.88;5052352;28;20360;-60
2022/09/03 07:41:52;;;;;;;2.63;1.88;;;17.20;99.90;;;-141.84;48.82;20868.78;5051313;28;20233;-59
2022/09/03 07:44:23;;;;;;;4.00;1.88;;;17.30;99.90;;;-141.84;49.14;20907.41;5051719;28;20225;-58
2022/09/03 07:46:51;;;;;;;2.22;2.00;;;17.30;99.90;;;-141.84;48.78;20907.41;5051696;28;20342;-59
2022/09/03 07:49:21;;;;;;;5.43;1.60;;;17.40;99.90;;;-141.84;48.49;20960.25;5051659;28;20233;-58
2022/09/03 07:51:52;;;;;;;2.92;1.90;;;17.50;99.90;;;-141.84;48.44;20976.53;5051473;28;20240;-59
2022/09/03 07:54:22;;;;;;;5.38;2.30;;;17.50;99.90;;;-141.84;48.30;20970.41;5051432;28;20277;-59
2022/09/03 07:56:52;;;;;;;3.80;2.13;;;17.60;99.90;;;-141.84;47.95;20992.78;5051422;28;20233;-60
2022/09/03 07:59:21;;;;;;;2.95;2.10;;;17.60;99.90;;;-141.84;48.00;20986.69;5051310;28;20320;-61
2022/09/03 08:01:51;;;;;;;3.58;1.92;;;17.60;99.90;;;-141.84;47.17;21009.03;5050431;28;20253;-60
2022/09/03 08:04:20;;;;;;;3.63;1.75;;;17.80;99.90;;;-141.84;47.24;21039.53;5051473;28;20236;-59
2022/09/03 08:06:49;;;;;;;3.15;1.77;;;17.90;99.90;;;-141.84;46.70;21039.53;5051472;28;20201;-59
2022/09/03 08:09:17;;;;;;;1.80;1.67;;;18.00;99.90;;;-141.84;46.98;21025.31;5051764;28;20205;-59
2022/09/03 08:11:45;;;;;;;2.20;1.90;;;18.00;99.90;;;-141.84;46.67;21086.31;5050587;28;20233;-59
2022/09/03 08:14:15;;;;;;;2.92;1.80;;;18.10;99.90;;;-141.84;46.10;21137.13;5051208;28;20225;-59
2022/09/03 08:16:46;;;;;;;2.67;1.73;;;18.10;99.90;;;-141.84;46.38;21082.25;5051042;28;20248;-59
2022/09/03 08:19:17;;;;;;;2.50;1.73;;;18.20;99.90;;;-141.84;46.33;21112.72;5051238;28;20225;-59
2022/09/03 08:21:45;;;;;;;2.38;1.70;;;18.20;99.90;;;-141.84;46.55;21094.44;5050978;28;20197;-59
2022/09/03 08:24:16;;;;;;;3.67;1.80;;;18.30;99.90;;;-141.84;45.92;21135.09;5050567;28;20216;-59
2022/09/03 08:26:44;;;;;;;4.80;1.60;;;18.40;99.90;;;-141.84;46.07;21133.06;5050227;28;20237;-59
2022/09/03 08:29:21;;;;;;;2.00;1.63;;;18.50;99.90;;;-141.84;46.13;21139.16;5050864;28;20228;-59
2022/09/03 08:31:49;;;;;;;1.70;1.60;;;18.60;99.90;;;-141.84;46.23;21224.56;5051104;28;20235;-59
2022/09/03 08:34:17;;;;;;;2.75;1.70;;;18.70;99.90;;;-141.84;45.92;21218.44;5031136;28;20218;-59
2022/09/03 08:36:46;;;;;;;4.97;1.90;;;18.80;99.90;;;-141.84;45.43;21175.75;5030965;28;20224;-61
2022/09/03 08:39:15;;;;;;;4.30;1.90;;;18.80;99.90;;;-141.84;45.43;21212.34;5037367;28;20261;-60
2022/09/03 08:42:19;;;;;;;1.83;1.67;;;18.90;99.90;;;-141.84;45.49;21212.34;5049792;28;20221;-58
2022/09/03 08:44:54;;;;;;;2.35;1.88;;;18.90;99.90;;;-141.84;45.00;21265.22;5050342;28;20228;-59
2022/09/03 08:47:30;;;;;;;3.33;1.75;;;19.00;99.90;;;-141.84;45.24;21253.00;5050780;28;20247;-59
2022/09/03 08:50:07;;;;;;;2.35;1.77;;;19.10;99.90;;;-141.84;44.71;21218.44;5050474;28;20230;-58
2022/09/03 08:52:47;;;;;;;3.25;1.95;;;19.10;99.90;;;-141.84;44.52;21234.72;5050490;28;20233;-60
2022/09/03 08:55:26;;;;;;;1.90;1.75;;;19.20;99.90;;;-141.84;44.54;21271.31;5050513;28;20312;-60
2022/09/03 08:58:03;;;;;;;2.92;1.90;;;19.20;99.90;;;-141.84;44.50;21279.44;5049929;28;20630;-59
2022/09/03 09:00:47;;;;;;;2.65;1.80;;;19.10;99.90;;;-141.84;44.65;21248.94;5051068;28;20189;-59
2022/09/03 09:03:41;;;;;;;1.48;1.25;;;19.20;99.90;;;-141.84;44.38;21281.47;5050822;28;20216;-59
2022/09/03 09:06:21;;;;;;;3.78;1.80;;;19.30;99.90;;;-141.84;43.83;21350.59;5054482;28;20216;-60
2022/09/03 09:09:07;;;;;;;2.80;1.80;;;19.50;99.90;;;-141.84;43.68;21340.44;5054424;28;20233;-59
2022/09/03 09:11:50;;;;;;;3.50;1.50;;;19.50;99.90;;;-141.84;43.14;21389.22;5053753;28;20237;-59
2022/09/03 09:14:31;;;;;;;1.77;1.58;;;19.60;99.90;;;-141.84;42.78;21403.47;5054267;28;20224;-59
2022/09/03 09:17:22;;;;;;;2.15;1.77;;;19.70;99.90;;;-141.84;42.16;21377.03;5054422;28;20581;-58
2022/09/03 09:20:05;;;;;;;1.85;1.50;;;19.70;99.90;;;-141.84;42.07;21391.28;5054405;28;20225;-58
2022/09/03 09:22:39;;;;;;;2.15;1.77;;;19.70;99.90;;;-141.84;42.10;21370.94;5054258;28;20229;-59
2022/09/03 09:25:14;;;;;;;2.42;1.75;;;19.80;99.90;;;-141.84;42.00;21391.28;5054487;28;20343;-59
2022/09/03 09:27:50;;;;;;;1.70;1.60;;;19.90;99.90;;;-141.84;42.20;21403.47;5053724;28;20201;-60
2022/09/03 09:30:19;;;;;;;1.83;1.73;;;19.90;99.90;;;-141.84;42.27;21395.34;5055064;28;20189;-58
2022/09/03 09:32:49;;;;;;;2.83;1.58;;;19.90;99.90;;;-141.84;41.03;21468.53;5053726;28;20231;-59
2022/09/03 09:35:18;;;;;;;2.65;1.75;;;20.00;99.90;;;-141.84;41.44;21476.66;5054025;28;20600;-60
2022/09/03 09:37:49;;;;;;;2.63;2.00;;;20.10;99.90;;;-141.84;41.45;21472.59;5053959;28;20237;-59
2022/09/03 09:40:32;;;;;;;2.05;1.77;;;20.10;99.90;;;-141.84;41.08;21482.75;5053791;28;20731;-60
2022/09/03 09:43:11;;;;;;;2.67;1.80;;;20.10;99.90;;;-141.84;41.27;21474.63;5053607;28;20227;-62
2022/09/03 09:45:41;;;;;;;4.75;1.95;;;20.20;99.90;;;-141.84;41.20;21442.09;5053974;28;20186;-60
2022/09/03 09:48:22;;;;;;;2.10;1.70;;;20.10;99.90;;;-141.84;40.97;21501.06;5054589;28;20186;-59
2022/09/03 09:50:50;;;;;;;5.32;1.90;;;20.10;99.90;;;-141.84;41.01;21501.06;5054126;28;20243;-59
2022/09/03 09:53:20;;;;;;;2.92;1.70;;;20.20;99.90;;;-141.84;40.64;21511.22;5053938;28;20233;-60
2022/09/03 09:55:54;;;;;;;1.77;1.67;;;20.20;99.90;;;-141.84;40.58;21501.06;5053381;28;20240;-60
2022/09/03 09:58:25;;;;;;;2.10;1.70;;;20.30;99.90;;;-141.84;40.44;21494.97;5053568;28;20229;-61
2022/09/03 10:01:11;;;;;;;3.03;2.08;;;20.20;99.90;;;-141.84;40.86;21492.94;5053719;28;20718;-59
2022/09/03 10:03:54;;;;;;;4.13;1.80;;;20.30;99.90;;;-141.84;40.09;21541.72;5054392;28;20499;-60
2022/09/03 10:09:14;;;;;;;1.90;1.80;;;20.40;99.90;;;-141.84;39.61;21588.50;5054216;28;20228;-59
2022/09/03 10:11:50;;;;;;;1.98;1.60;;;20.50;99.90;;;-141.84;39.49;21566.13;5053466;28;20332;-60
2022/09/03 10:14:25;;;;;;;2.40;1.80;;;20.60;99.90;;;-141.84;39.01;21604.75;5053551;28;20233;-59
2022/09/03 10:17:03;;;;;;;3.08;1.60;;;20.60;99.90;;;-141.84;38.65;21578.31;5052699;28;20769;-59
2022/09/03 10:20:25;;;;;;;3.50;1.60;;;20.60;99.90;;;-141.84;38.98;21590.53;5053751;28;20229;-60
2022/09/03 10:22:41;;;;;;;2.08;1.70;;;20.60;99.90;;;-141.84;39.05;21576.28;5053775;28;20312;-60
2022/09/03 10:25:31;;;;;;;2.35;1.90;;;20.70;99.90;;;-141.84;38.81;21653.56;5053504;28;20237;-60
2022/09/03 10:28:00;;;;;;;3.03;1.70;;;20.80;99.90;;;-141.84;38.97;21631.19;5053205;28;20573;-60
2022/09/03 10:30:46;;;;;;;2.35;1.92;;;20.80;99.90;;;-141.84;38.74;21631.19;5054083;28;20293;-61
2022/09/03 10:33:24;;;;;;;3.78;2.10;;;20.80;99.90;;;-141.84;38.57;21698.28;5033344;28;20238;-59
2022/09/03 10:36:18;;;;;;;3.50;2.00;;;21.00;99.90;;;-141.84;38.56;21639.31;5033128;28;20244;-59